Time;durP1;ratioP1;P1;durP2;ratioP2;P2;SDS_P1;SDS_P2;PMS_P1;PMS_P2;Temp;Humidity;BMP_temperature;BMP_pressure;BME280_temperature;BME280_humidity;BME280_pressure;Samples;Min_cycle;Max_cycle;Signal;HPM_P1;HPM_P2
2022/01/13 00:01:24;;;;;;;109.22;33.25;;;4.60;89.70;;;;;;4988519;28;20280;-93
2022/01/13 00:03:49;;;;;;;91.90;33.38;;;4.60;89.70;;;;;;4997108;28;20100;-89
2022/01/13 00:06:15;;;;;;;98.57;35.78;;;4.50;89.70;;;;;;4988052;28;20049;-90
2022/01/13 00:08:41;;;;;;;152.93;36.28;;;4.50;90.10;;;;;;5006058;28;20030;-90
2022/01/13 00:11:07;;;;;;;98.78;36.70;;;4.50;89.90;;;;;;5014827;28;20025;-89
2022/01/13 00:13:45;;;;;;;107.47;37.95;;;4.50;89.90;;;;;;4984108;28;20029;-90
2022/01/13 00:21:57;;;;;;;98.85;33.85;;;4.50;89.90;;;;;;5020425;28;21049;-90
2022/01/13 00:24:23;;;;;;;90.75;30.65;;;4.50;89.90;;;;;;5003888;28;20021;-91
2022/01/13 00:26:48;;;;;;;87.32;31.70;;;4.50;89.80;;;;;;5001754;28;20039;-91
2022/01/13 00:29:20;;;;;;;96.97;31.90;;;4.50;89.70;;;;;;4997923;28;20075;-91
2022/01/13 00:31:46;;;;;;;90.70;33.65;;;4.50;89.70;;;;;;5004351;28;20566;-91
2022/01/13 00:34:12;;;;;;;91.05;32.63;;;4.50;89.80;;;;;;5011630;28;20036;-91
2022/01/13 00:36:39;;;;;;;88.82;32.03;;;4.50;89.80;;;;;;4996046;28;20033;-91
2022/01/13 00:39:07;;;;;;;92.15;32.83;;;4.50;89.80;;;;;;5009221;28;20025;-91
2022/01/13 00:41:33;;;;;;;93.25;32.83;;;4.50;89.70;;;;;;5007498;28;20563;-91
2022/01/13 00:44:00;;;;;;;111.22;33.45;;;4.50;89.60;;;;;;4992038;28;20034;-92
2022/01/13 00:46:38;;;;;;;103.03;34.10;;;4.50;89.60;;;;;;4999822;28;20456;-91
2022/01/13 00:49:04;;;;;;;107.03;31.83;;;4.50;89.60;;;;;;5000357;28;20021;-91
2022/01/13 00:51:30;;;;;;;96.63;32.13;;;4.50;89.50;;;;;;5007556;28;20026;-91
2022/01/13 00:54:02;;;;;;;99.68;30.85;;;4.50;89.60;;;;;;4973523;28;20034;-91
2022/01/13 00:56:28;;;;;;;117.88;33.00;;;4.50;89.90;;;;;;4986986;28;20038;-91
2022/01/13 00:58:53;;;;;;;95.82;31.20;;;4.40;89.70;;;;;;4986538;28;20032;-91
2022/01/13 01:01:19;;;;;;;95.75;31.50;;;4.40;89.80;;;;;;4985759;28;20471;-91
2022/01/13 01:03:45;;;;;;;90.05;30.75;;;4.40;90.00;;;;;;4986646;28;20092;-90
2022/01/13 01:06:10;;;;;;;95.57;29.88;;;4.40;90.00;;;;;;4988027;28;20029;-91
2022/01/13 01:08:36;;;;;;;101.40;32.42;;;4.40;90.00;;;;;;5019673;28;20034;-90
2022/01/13 01:11:03;;;;;;;89.60;30.45;;;4.40;90.00;;;;;;5012788;28;20032;-90
2022/01/13 01:13:33;;;;;;;103.47;31.65;;;4.40;90.00;;;;;;5002882;28;20030;-91
2022/01/13 01:16:05;;;;;;;157.05;33.00;;;4.50;90.00;;;;;;5028984;28;20109;-91
2022/01/13 01:18:48;;;;;;;96.57;31.77;;;4.50;89.90;;;;;;5011779;28;20045;-91
2022/01/13 01:25:00;;;;;;;94.20;31.50;;;4.50;89.90;;;;;;5017087;28;20523;-92
2022/01/13 01:26:50;;;;;;;128.00;31.25;;;4.50;90.00;;;;;;5015742;28;20033;-92
2022/01/13 01:31:51;;;;;;;151.98;34.47;;;4.40;90.00;;;;;;5026174;28;20460;-92
2022/01/13 01:36:49;;;;;;;116.53;34.22;;;4.40;90.10;;;;;;5019341;28;20048;-91
2022/01/13 01:39:15;;;;;;;206.63;36.08;;;4.40;90.10;;;;;;4991927;28;20029;-91
2022/01/13 01:41:43;;;;;;;107.20;33.25;;;4.40;90.10;;;;;;5007785;28;20121;-91
2022/01/13 01:44:15;;;;;;;107.50;31.55;;;4.40;90.20;;;;;;5026286;28;20037;-92
2022/01/13 01:46:44;;;;;;;104.93;33.53;;;4.40;90.20;;;;;;5002595;28;20026;-91
2022/01/13 01:49:16;;;;;;;121.78;32.20;;;4.40;90.20;;;;;;5004495;28;20032;-91
2022/01/13 01:51:52;;;;;;;102.93;30.85;;;4.50;90.20;;;;;;5014104;28;20045;-91
2022/01/13 01:54:18;;;;;;;90.45;29.38;;;4.40;90.20;;;;;;5021293;28;20068;-92
2022/01/13 01:56:44;;;;;;;92.47;29.08;;;4.40;90.20;;;;;;5010376;28;20026;-91
2022/01/13 01:59:14;;;;;;;95.38;30.20;;;4.40;90.20;;;;;;4989793;28;20467;-91
2022/01/13 02:01:42;;;;;;;154.15;32.05;;;4.40;90.20;;;;;;4991645;28;20042;-91
2022/01/13 02:04:08;;;;;;;145.88;31.80;;;4.40;90.20;;;;;;5008775;28;20167;-91
2022/01/13 02:06:35;;;;;;;78.63;27.88;;;4.50;90.20;;;;;;5022748;28;20112;-91
2022/01/13 02:09:02;;;;;;;81.10;27.17;;;4.50;90.20;;;;;;4988781;28;20155;-91
2022/01/13 02:11:29;;;;;;;120.22;30.77;;;4.50;90.20;;;;;;4979795;28;20502;-91
2022/01/13 02:14:08;;;;;;;86.72;29.23;;;4.50;90.20;;;;;;4980280;28;20756;-91
2022/01/13 02:19:01;;;;;;;73.38;26.52;;;4.50;90.10;;;;;;4980757;28;20055;-92
2022/01/13 02:21:27;;;;;;;100.40;28.23;;;4.50;90.20;;;;;;4995733;28;20018;-91
2022/01/13 02:23:56;;;;;;;137.48;29.42;;;4.40;90.20;;;;;;4980102;28;20073;-91
2022/01/13 02:26:22;;;;;;;124.13;29.95;;;4.40;90.20;;;;;;4996070;28;20036;-91
2022/01/13 02:28:51;;;;;;;78.68;26.85;;;4.40;90.20;;;;;;4979896;28;20038;-91
2022/01/13 02:31:17;;;;;;;83.95;25.63;;;4.40;90.30;;;;;;4995375;28;20134;-91
2022/01/13 02:33:43;;;;;;;90.28;26.52;;;4.40;90.30;;;;;;4980099;28;20393;-91
2022/01/13 02:36:10;;;;;;;91.53;26.52;;;4.40;90.30;;;;;;4963839;28;20060;-91
2022/01/13 02:38:36;;;;;;;93.32;26.67;;;4.40;90.30;;;;;;4979744;28;20030;-91
2022/01/13 02:41:03;;;;;;;75.90;23.83;;;4.40;90.30;;;;;;4978849;28;20049;-90
2022/01/13 02:43:30;;;;;;;96.25;25.73;;;4.40;90.40;;;;;;4979435;28;20480;-91
2022/01/13 02:46:55;;;;;;;114.53;26.15;;;4.40;90.40;;;;;;5013200;28;20033;-91
2022/01/13 02:48:46;;;;;;;85.80;25.05;;;4.50;90.40;;;;;;4979717;28;20113;-91
2022/01/13 02:51:12;;;;;;;79.70;24.00;;;4.50;90.40;;;;;;4963455;28;20596;-91
2022/01/13 02:53:37;;;;;;;85.18;25.48;;;4.50;90.40;;;;;;4995627;28;20061;-91
2022/01/13 02:56:05;;;;;;;86.35;26.45;;;4.50;90.40;;;;;;4978921;28;20052;-91
2022/01/13 02:58:34;;;;;;;176.25;29.65;;;4.50;90.40;;;;;;4996241;28;20029;-91
2022/01/13 03:01:01;;;;;;;99.40;29.02;;;4.40;90.40;;;;;;5011371;28;20058;-90
2022/01/13 03:03:29;;;;;;;218.48;31.52;;;4.40;90.40;;;;;;4995829;28;20417;-91
2022/01/13 03:05:55;;;;;;;101.38;27.88;;;4.40;90.50;;;;;;4995893;28;20468;-91
2022/01/13 03:08:21;;;;;;;89.10;25.10;;;4.40;90.50;;;;;;4979010;28;20088;-91
2022/01/13 03:10:47;;;;;;;119.82;25.88;;;4.40;90.50;;;;;;4963454;28;20477;-91
2022/01/13 03:13:12;;;;;;;79.70;27.13;;;4.40;90.50;;;;;;4978860;28;20027;-91
2022/01/13 03:15:38;;;;;;;88.78;25.23;;;4.40;90.60;;;;;;4995158;28;20643;-91
2022/01/13 03:18:04;;;;;;;64.97;23.10;;;4.40;90.60;;;;;;4995154;28;20033;-92
2022/01/13 03:20:30;;;;;;;63.10;22.48;;;4.40;90.60;;;;;;4979292;28;20030;-91
2022/01/13 03:22:56;;;;;;;67.03;23.52;;;4.40;90.60;;;;;;4994693;28;20037;-86
2022/01/13 03:25:23;;;;;;;77.85;23.83;;;4.40;90.60;;;;;;4994123;28;20040;-88
2022/01/13 03:27:57;;;;;;;69.90;23.95;;;4.40;90.60;;;;;;4977921;28;20119;-88
2022/01/13 03:30:23;;;;;;;67.32;22.98;;;4.40;90.60;;;;;;4963913;28;20033;-87
2022/01/13 03:32:49;;;;;;;71.85;23.35;;;4.40;90.70;;;;;;4961380;28;20037;-88
2022/01/13 03:35:15;;;;;;;61.30;22.35;;;4.40;90.70;;;;;;4993887;28;20022;-88
2022/01/13 03:37:40;;;;;;;53.58;19.80;;;4.40;90.60;;;;;;4977621;28;20507;-88
2022/01/13 03:40:07;;;;;;;47.17;19.92;;;4.40;90.60;;;;;;4993729;28;20090;-88
2022/01/13 03:42:33;;;;;;;63.28;21.45;;;4.40;90.70;;;;;;4977230;28;20069;-88
2022/01/13 03:45:00;;;;;;;57.53;20.77;;;4.40;90.70;;;;;;4977910;28;20459;-88
2022/01/13 03:47:25;;;;;;;77.50;22.10;;;4.40;90.70;;;;;;4993982;28;20080;-88
2022/01/13 03:49:51;;;;;;;79.40;22.17;;;4.30;90.70;;;;;;4994017;28;20022;-88
2022/01/13 03:52:57;;;;;;;119.70;22.33;;;4.30;90.80;;;;;;4977569;28;20062;-88
2022/01/13 03:55:35;;;;;;;118.85;22.13;;;4.30;90.80;;;;;;5010297;28;20061;-88
2022/01/13 03:58:38;;;;;;;56.13;22.02;;;4.30;90.80;;;;;;5009751;28;20038;-87
2022/01/13 04:01:34;;;;;;;80.15;22.20;;;4.30;90.80;;;;;;5001049;28;20034;-88
2022/01/13 04:04:00;;;;;;;67.40;20.23;;;4.30;90.80;;;;;;5011146;28;20026;-88
2022/01/13 04:06:43;;;;;;;47.85;18.35;;;4.40;90.80;;;;;;4993460;28;20506;-88
2022/01/13 04:09:27;;;;;;;52.35;19.02;;;4.40;90.80;;;;;;4993715;28;20030;-88
2022/01/13 04:11:54;;;;;;;55.60;19.20;;;4.40;90.80;;;;;;4993365;28;20026;-88
2022/01/13 04:14:30;;;;;;;61.20;19.60;;;4.40;90.80;;;;;;4977237;28;20049;-88
2022/01/13 04:16:56;;;;;;;64.30;19.35;;;4.40;91.00;;;;;;4993522;28;20046;-88
2022/01/13 04:19:22;;;;;;;122.63;24.55;;;4.40;90.80;;;;;;4977590;28;20114;-88
2022/01/13 04:21:47;;;;;;;61.00;20.70;;;4.40;90.70;;;;;;4977060;28;20129;-88
2022/01/13 04:24:13;;;;;;;75.72;20.00;;;4.40;90.70;;;;;;4993444;28;20026;-87
2022/01/13 04:26:41;;;;;;;63.13;21.95;;;4.40;90.70;;;;;;4993705;28;20121;-92
2022/01/13 04:31:40;;;;;;;87.35;19.83;;;4.40;90.70;;;;;;4994849;28;20439;-92
2022/01/13 04:34:06;;;;;;;81.45;20.17;;;4.40;90.60;;;;;;4977448;28;20038;-91
2022/01/13 04:36:32;;;;;;;75.40;20.60;;;4.40;90.70;;;;;;4981414;28;20469;-91
2022/01/13 04:38:58;;;;;;;57.08;19.52;;;4.30;90.70;;;;;;4997995;28;20026;-88
2022/01/13 04:41:33;;;;;;;117.80;22.92;;;4.30;90.70;;;;;;4985685;28;20029;-88
2022/01/13 04:44:00;;;;;;;107.63;21.55;;;4.30;90.70;;;;;;4977969;28;20380;-88
2022/01/13 04:46:26;;;;;;;51.60;19.55;;;4.30;90.70;;;;;;4985721;28;20038;-88
2022/01/13 04:48:52;;;;;;;56.42;21.05;;;4.30;90.70;;;;;;5003612;28;20440;-88
2022/01/13 04:51:18;;;;;;;60.85;21.23;;;4.40;90.70;;;;;;4967238;28;20091;-88
2022/01/13 04:53:44;;;;;;;43.55;17.15;;;4.40;90.70;;;;;;4989534;28;20112;-88
2022/01/13 04:56:14;;;;;;;50.10;18.75;;;4.40;90.70;;;;;;4967896;28;20034;-88
2022/01/13 04:58:40;;;;;;;91.35;20.88;;;4.40;90.70;;;;;;4980344;28;20034;-88
2022/01/13 05:01:06;;;;;;;67.60;19.60;;;4.40;90.70;;;;;;4982118;28;20041;-88
2022/01/13 05:03:32;;;;;;;50.67;19.33;;;4.40;90.60;;;;;;5007545;28;20021;-88
2022/01/13 05:05:58;;;;;;;109.18;22.52;;;4.40;90.60;;;;;;4995495;28;20033;-89
2022/01/13 05:08:23;;;;;;;70.88;20.52;;;4.30;90.60;;;;;;4973659;28;20030;-88
2022/01/13 05:10:49;;;;;;;70.82;21.52;;;4.30;90.60;;;;;;4992346;28;20045;-88
2022/01/13 05:13:15;;;;;;;94.47;21.45;;;4.30;90.50;;;;;;5006202;28;20014;-88
2022/01/13 05:15:43;;;;;;;63.83;20.45;;;4.30;90.50;;;;;;4990069;28;20107;-88
2022/01/13 05:20:50;;;;;;;147.13;23.45;;;4.30;90.60;;;;;;5008199;28;20064;-88
2022/01/13 05:23:17;;;;;;;59.80;20.65;;;4.20;90.60;;;;;;5003585;28;20486;-88
2022/01/13 05:25:43;;;;;;;71.43;22.08;;;4.20;90.70;;;;;;4989674;28;20026;-88
2022/01/13 05:28:10;;;;;;;60.20;21.33;;;4.20;90.70;;;;;;5013997;28;20022;-88
2022/01/13 05:30:36;;;;;;;59.17;19.60;;;4.20;90.60;;;;;;5017493;28;20498;-88
2022/01/13 05:33:03;;;;;;;55.83;20.30;;;4.10;90.60;;;;;;4992089;28;20477;-88
2022/01/13 05:35:29;;;;;;;57.20;20.42;;;4.10;90.70;;;;;;5003830;28;20116;-88
2022/01/13 05:37:55;;;;;;;46.15;18.13;;;4.10;90.70;;;;;;4979439;28;20518;-88
2022/01/13 05:40:21;;;;;;;54.08;21.17;;;4.10;90.80;;;;;;4970257;28;20490;-88
2022/01/13 05:42:48;;;;;;;45.92;18.95;;;4.10;90.80;;;;;;4987027;28;20734;-88
2022/01/13 05:45:18;;;;;;;58.15;20.77;;;4.10;90.80;;;;;;5008773;28;20469;-88
2022/01/13 05:47:46;;;;;;;60.58;19.67;;;4.10;90.80;;;;;;4990663;28;20022;-88
2022/01/13 05:50:13;;;;;;;95.30;20.38;;;4.10;90.80;;;;;;4993909;28;20378;-88
2022/01/13 05:52:39;;;;;;;61.10;20.65;;;4.10;90.70;;;;;;4979299;28;20032;-88
2022/01/13 05:55:06;;;;;;;46.20;18.90;;;4.10;90.70;;;;;;4975441;28;20034;-88
2022/01/13 05:57:32;;;;;;;65.95;19.13;;;4.10;90.70;;;;;;4997774;28;20022;-88
2022/01/13 05:59:58;;;;;;;40.78;18.30;;;4.10;90.70;;;;;;4995217;28;20034;-88
2022/01/13 06:02:24;;;;;;;106.18;21.92;;;4.10;90.80;;;;;;4977792;28;20033;-88
2022/01/13 06:04:50;;;;;;;71.18;20.33;;;4.00;90.70;;;;;;4991478;28;20033;-88
2022/01/13 06:07:16;;;;;;;46.33;18.50;;;4.10;90.80;;;;;;4996440;28;20029;-88
2022/01/13 06:09:43;;;;;;;51.35;18.95;;;4.10;90.80;;;;;;4949615;28;20497;-88
2022/01/13 06:12:09;;;;;;;46.75;18.60;;;4.10;90.80;;;;;;4978080;28;20040;-88
2022/01/13 06:14:34;;;;;;;43.10;17.50;;;4.10;90.80;;;;;;4962733;28;20058;-88
2022/01/13 06:17:00;;;;;;;81.22;19.70;;;4.10;90.80;;;;;;4978043;28;20034;-87
2022/01/13 06:19:26;;;;;;;100.15;19.67;;;4.10;90.80;;;;;;4995021;28;20038;-88
2022/01/13 06:21:51;;;;;;;36.05;17.08;;;4.00;90.80;;;;;;4994322;28;20049;-88
2022/01/13 06:24:17;;;;;;;45.47;18.13;;;4.00;90.90;;;;;;4978011;28;20080;-88
2022/01/13 06:26:43;;;;;;;49.40;15.75;;;4.00;90.80;;;;;;4978684;28;20018;-88
2022/01/13 06:29:09;;;;;;;50.88;16.92;;;4.00;90.90;;;;;;4978167;28;20030;-88
2022/01/13 06:31:34;;;;;;;43.28;17.08;;;4.10;90.90;;;;;;5011393;28;20048;-87
2022/01/13 06:34:00;;;;;;;49.85;18.35;;;4.10;90.90;;;;;;4979812;28;20041;-88
2022/01/13 06:36:27;;;;;;;43.15;16.75;;;4.10;90.80;;;;;;5012421;28;20084;-87
2022/01/13 06:38:52;;;;;;;57.92;19.10;;;4.10;90.80;;;;;;4995691;28;20022;-88
2022/01/13 06:41:19;;;;;;;60.70;17.63;;;4.10;90.80;;;;;;4977828;28;20076;-87
2022/01/13 06:43:45;;;;;;;42.63;15.82;;;4.10;90.80;;;;;;4992140;28;20018;-88
2022/01/13 06:46:15;;;;;;;62.95;18.27;;;4.10;90.90;;;;;;4984596;28;20552;-92
2022/01/13 06:48:42;;;;;;;64.47;17.95;;;4.00;90.90;;;;;;4979650;28;20114;-90
2022/01/13 06:51:08;;;;;;;36.15;16.13;;;4.00;90.90;;;;;;5004724;28;20496;-91
2022/01/13 06:53:34;;;;;;;43.53;17.05;;;4.00;91.10;;;;;;4980817;28;20041;-91
2022/01/13 06:55:59;;;;;;;45.28;16.50;;;4.00;90.80;;;;;;4989795;28;20120;-90
2022/01/13 06:58:31;;;;;;;42.45;16.15;;;4.00;90.80;;;;;;5005170;28;20037;-91
2022/01/13 07:00:58;;;;;;;53.35;18.35;;;4.00;90.90;;;;;;4975097;28;20062;-91
2022/01/13 07:03:23;;;;;;;69.47;18.77;;;4.00;90.90;;;;;;5004966;28;20069;-91
2022/01/13 07:05:52;;;;;;;39.60;18.25;;;4.00;90.80;;;;;;4991964;28;20021;-91
2022/01/13 07:08:18;;;;;;;157.90;24.23;;;4.00;90.80;;;;;;4989268;28;20040;-92
2022/01/13 07:10:45;;;;;;;57.72;18.08;;;4.00;90.80;;;;;;4993457;28;20021;-91
2022/01/13 07:13:11;;;;;;;38.63;17.10;;;4.00;90.80;;;;;;4987613;28;20029;-92
2022/01/13 07:15:37;;;;;;;95.85;19.70;;;4.00;90.90;;;;;;4998943;28;20131;-91
2022/01/13 07:18:03;;;;;;;53.65;17.52;;;4.00;90.90;;;;;;4970844;28;20093;-92
2022/01/13 07:20:29;;;;;;;74.72;19.33;;;4.00;90.90;;;;;;5009796;28;20033;-92
2022/01/13 07:22:54;;;;;;;46.90;17.98;;;4.00;90.90;;;;;;4980992;28;20023;-92
2022/01/13 07:25:20;;;;;;;42.72;17.23;;;4.00;90.90;;;;;;4991671;28;20049;-91
2022/01/13 07:27:46;;;;;;;54.47;18.23;;;4.00;91.00;;;;;;4968566;28;20060;-91
2022/01/13 07:30:12;;;;;;;50.80;17.42;;;4.00;91.00;;;;;;4967872;28;20037;-91
2022/01/13 07:32:39;;;;;;;44.15;18.95;;;4.00;91.00;;;;;;5001084;28;20049;-91
2022/01/13 07:35:06;;;;;;;40.35;17.30;;;4.00;91.00;;;;;;4994879;28;20034;-91
2022/01/13 07:37:32;;;;;;;40.30;17.63;;;4.00;91.00;;;;;;4994632;28;20030;-91
2022/01/13 07:39:58;;;;;;;48.65;18.45;;;4.00;91.00;;;;;;4978902;28;20539;-90
2022/01/13 07:42:25;;;;;;;45.35;17.02;;;4.00;91.10;;;;;;4978241;28;20018;-91
2022/01/13 07:44:51;;;;;;;37.15;15.43;;;4.00;91.10;;;;;;4975328;28;20106;-91
2022/01/13 07:47:16;;;;;;;44.13;16.33;;;3.90;91.00;;;;;;4994717;28;20508;-91
2022/01/13 07:49:42;;;;;;;34.42;16.30;;;3.90;91.10;;;;;;4963896;28;20036;-91
2022/01/13 07:52:07;;;;;;;41.10;16.92;;;4.00;91.20;;;;;;4994559;28;20164;-90
2022/01/13 07:54:33;;;;;;;62.33;17.10;;;4.00;91.10;;;;;;4995349;28;20647;-92
2022/01/13 07:56:59;;;;;;;58.28;18.00;;;4.00;91.10;;;;;;4994842;28;20030;-91
2022/01/13 07:59:28;;;;;;;44.75;18.63;;;4.10;91.10;;;;;;5012483;28;20032;-91
2022/01/13 08:01:58;;;;;;;49.58;17.45;;;4.10;91.10;;;;;;4973277;28;20022;-91
2022/01/13 08:04:24;;;;;;;35.67;16.48;;;4.10;91.10;;;;;;4998531;28;20022;-91
2022/01/13 08:06:50;;;;;;;34.83;16.73;;;4.10;91.10;;;;;;4985750;28;20088;-91
2022/01/13 08:09:16;;;;;;;46.75;17.30;;;4.10;91.10;;;;;;5000125;28;20362;-91
2022/01/13 08:11:41;;;;;;;42.95;16.33;;;4.10;91.10;;;;;;4969727;28;20045;-91
2022/01/13 08:14:07;;;;;;;30.55;15.02;;;4.10;91.30;;;;;;4993816;28;20076;-91
2022/01/13 08:16:35;;;;;;;37.38;16.35;;;4.10;91.10;;;;;;4985509;28;20037;-91
2022/01/13 08:21:46;;;;;;;41.92;15.70;;;4.10;91.10;;;;;;5019630;28;20507;-92
2022/01/13 08:24:12;;;;;;;35.45;15.23;;;4.00;91.10;;;;;;5005499;28;20038;-92
2022/01/13 08:26:37;;;;;;;39.95;16.08;;;4.00;91.20;;;;;;4982435;28;20096;-92
2022/01/13 08:29:04;;;;;;;44.00;15.80;;;4.10;91.20;;;;;;4988700;28;20464;-92
2022/01/13 08:31:30;;;;;;;40.25;15.65;;;4.10;91.20;;;;;;4968935;28;20026;-93
2022/01/13 08:33:56;;;;;;;32.75;16.30;;;4.10;91.10;;;;;;5007075;28;20496;-92
2022/01/13 08:36:22;;;;;;;48.42;16.30;;;4.10;91.10;;;;;;4999441;28;20056;-91
2022/01/13 08:38:49;;;;;;;74.22;17.17;;;4.10;91.10;;;;;;5005970;28;20021;-93
2022/01/13 08:41:16;;;;;;;58.53;16.70;;;4.10;91.10;;;;;;4988700;28;20057;-92
2022/01/13 08:43:42;;;;;;;58.38;17.17;;;4.10;91.10;;;;;;5008747;28;20029;-93
2022/01/13 08:46:07;;;;;;;33.00;15.30;;;4.10;91.20;;;;;;4985957;28;20548;-93
2022/01/13 08:48:34;;;;;;;66.05;15.45;;;4.10;91.10;;;;;;4983863;28;20112;-92
2022/01/13 08:51:01;;;;;;;28.35;13.32;;;4.00;91.20;;;;;;4999267;28;20041;-92
2022/01/13 08:53:27;;;;;;;33.78;15.38;;;4.00;91.20;;;;;;4993383;28;20033;-91
2022/01/13 08:55:55;;;;;;;31.45;14.45;;;4.00;91.40;;;;;;5002992;28;20373;-92
2022/01/13 08:58:22;;;;;;;38.58;14.10;;;4.10;91.20;;;;;;5016577;28;20025;-91
2022/01/13 09:00:49;;;;;;;47.95;15.63;;;4.10;91.20;;;;;;4987413;28;20022;-91
2022/01/13 09:03:15;;;;;;;34.83;14.38;;;4.10;91.10;;;;;;5010178;28;20037;-91
2022/01/13 09:05:42;;;;;;;28.55;13.95;;;4.10;91.10;;;;;;4999438;28;20213;-92
2022/01/13 09:08:10;;;;;;;57.78;15.80;;;4.10;91.10;;;;;;4987565;28;20120;-92
2022/01/13 09:10:39;;;;;;;28.88;14.38;;;4.00;91.10;;;;;;4987915;28;20029;-91
2022/01/13 09:13:11;;;;;;;27.30;13.77;;;4.00;91.20;;;;;;5009840;28;20026;-91
2022/01/13 09:15:41;;;;;;;48.05;13.95;;;4.10;91.30;;;;;;5006109;28;20042;-91
2022/01/13 09:18:10;;;;;;;53.70;14.50;;;4.10;91.30;;;;;;4990089;28;20057;-91
2022/01/13 09:20:40;;;;;;;49.10;14.85;;;4.10;91.20;;;;;;4996094;28;20033;-91
2022/01/13 09:23:06;;;;;;;39.33;14.70;;;4.10;91.20;;;;;;4963870;28;20049;-91
2022/01/13 09:25:32;;;;;;;31.30;13.93;;;4.10;91.10;;;;;;5013733;28;20028;-91
2022/01/13 09:27:58;;;;;;;31.38;13.55;;;4.00;91.20;;;;;;4994669;28;20037;-92
2022/01/13 09:30:24;;;;;;;35.85;14.70;;;4.10;91.20;;;;;;4989414;28;20030;-92
2022/01/13 09:32:51;;;;;;;43.92;14.48;;;4.10;91.20;;;;;;4979755;28;20026;-91
2022/01/13 09:35:17;;;;;;;52.10;15.30;;;4.10;91.20;;;;;;4983653;28;20470;-91
2022/01/13 09:37:43;;;;;;;39.53;14.85;;;4.10;91.20;;;;;;4994718;28;20030;-92
2022/01/13 09:40:10;;;;;;;39.10;13.45;;;4.00;91.20;;;;;;4996499;28;20124;-91
2022/01/13 09:42:40;;;;;;;35.92;14.32;;;4.10;91.30;;;;;;4995847;28;20117;-89
2022/01/13 09:45:08;;;;;;;27.85;13.55;;;4.10;91.50;;;;;;5013812;28;20393;-89
2022/01/13 09:47:37;;;;;;;29.17;13.45;;;4.20;91.30;;;;;;4986154;28;20022;-89
2022/01/13 09:50:09;;;;;;;33.65;13.40;;;4.20;91.20;;;;;;4992974;28;20025;-90
2022/01/13 09:52:35;;;;;;;35.58;13.98;;;4.20;91.10;;;;;;4994596;28;20053;-90
2022/01/13 09:55:01;;;;;;;38.53;13.70;;;4.20;91.10;;;;;;4979921;28;20062;-89
2022/01/13 09:57:27;;;;;;;26.88;13.77;;;4.20;91.20;;;;;;4962175;28;20153;-89
2022/01/13 09:59:55;;;;;;;41.22;13.25;;;4.20;91.20;;;;;;4962583;28;20022;-90
2022/01/13 10:02:21;;;;;;;32.47;14.85;;;4.20;91.20;;;;;;4979476;28;20056;-90
2022/01/13 10:04:50;;;;;;;31.75;13.23;;;4.20;91.10;;;;;;4962296;28;20117;-89
2022/01/13 10:07:34;;;;;;;27.75;13.55;;;4.20;91.10;;;;;;4999203;28;20038;-89
2022/01/13 10:10:03;;;;;;;29.05;13.48;;;4.20;91.20;;;;;;4998518;28;20067;-89
2022/01/13 10:12:36;;;;;;;37.10;13.35;;;4.20;91.20;;;;;;4998416;28;20043;-89
2022/01/13 10:17:48;;;;;;;44.05;14.68;;;4.20;91.10;;;;;;5006156;28;20101;-89
2022/01/13 10:20:17;;;;;;;30.85;14.32;;;4.20;91.10;;;;;;4999728;28;20021;-90
2022/01/13 10:22:43;;;;;;;66.05;16.23;;;4.20;91.10;;;;;;4995942;28;20149;-91
2022/01/13 10:25:26;;;;;;;31.63;14.38;;;4.20;91.20;;;;;;4987516;28;20119;-91
2022/01/13 10:27:52;;;;;;;34.22;14.68;;;4.20;91.20;;;;;;4997953;28;20072;-91
2022/01/13 10:30:26;;;;;;;26.00;13.13;;;4.20;91.10;;;;;;4977814;28;20123;-91
2022/01/13 10:32:53;;;;;;;27.25;14.45;;;4.20;91.20;;;;;;4980354;28;20046;-90
2022/01/13 10:35:23;;;;;;;28.20;13.40;;;4.20;91.20;;;;;;4994179;28;20191;-91
2022/01/13 10:37:56;;;;;;;67.88;16.60;;;4.20;91.20;;;;;;5010582;28;20018;-91
2022/01/13 10:40:33;;;;;;;50.75;14.48;;;4.20;91.20;;;;;;5007182;28;20033;-91
2022/01/13 10:45:40;;;;;;;28.30;14.23;;;4.30;91.20;;;;;;5022014;28;20492;-91
2022/01/13 10:48:17;;;;;;;44.72;15.55;;;4.30;91.20;;;;;;4990392;28;20026;-90
2022/01/13 10:50:44;;;;;;;28.00;14.52;;;4.30;91.20;;;;;;4992681;28;20029;-90
2022/01/13 10:53:22;;;;;;;27.35;13.57;;;4.20;91.20;;;;;;4994823;28;20034;-91
2022/01/13 10:55:51;;;;;;;56.55;16.10;;;4.30;91.30;;;;;;5011473;28;20053;-91
2022/01/13 10:58:23;;;;;;;31.60;14.68;;;4.30;91.30;;;;;;4994680;28;20029;-90
2022/01/13 11:00:51;;;;;;;27.58;12.98;;;4.40;91.30;;;;;;4994456;28;20477;-90
2022/01/13 11:03:19;;;;;;;25.55;12.75;;;4.40;91.30;;;;;;4978309;28;20484;-88
2022/01/13 11:05:52;;;;;;;28.95;15.20;;;4.40;91.30;;;;;;4994744;28;20033;-88
2022/01/13 11:08:27;;;;;;;35.25;15.30;;;4.40;91.20;;;;;;4994623;28;20038;-88
2022/01/13 11:10:58;;;;;;;37.95;14.88;;;4.40;91.20;;;;;;4979573;28;20037;-88
2022/01/13 11:13:27;;;;;;;33.50;14.68;;;4.40;91.20;;;;;;4994440;28;20022;-88
2022/01/13 11:15:55;;;;;;;29.52;14.95;;;4.40;91.20;;;;;;4995054;28;20061;-88
2022/01/13 11:18:23;;;;;;;54.17;15.25;;;4.50;91.20;;;;;;4978184;28;20053;-91
2022/01/13 11:20:49;;;;;;;39.65;16.27;;;4.50;91.20;;;;;;4994288;28;20026;-91
2022/01/13 11:23:17;;;;;;;56.53;16.08;;;4.40;91.20;;;;;;4978568;28;20029;-90
2022/01/13 11:25:45;;;;;;;36.72;14.93;;;4.50;91.20;;;;;;4994600;28;20536;-91
2022/01/13 11:28:11;;;;;;;36.33;14.68;;;4.40;91.10;;;;;;4983532;28;20046;-91
2022/01/13 11:30:38;;;;;;;48.30;16.63;;;4.40;91.10;;;;;;4978802;28;20030;-91
2022/01/13 11:33:04;;;;;;;60.00;15.93;;;4.40;91.20;;;;;;4995222;28;20042;-90
2022/01/13 11:35:35;;;;;;;51.88;16.33;;;4.40;91.20;;;;;;4995126;28;20435;-90
2022/01/13 11:38:03;;;;;;;35.55;15.95;;;4.40;91.20;;;;;;5010967;28;20025;-91
2022/01/13 11:40:32;;;;;;;63.40;17.40;;;4.40;91.10;;;;;;4994852;28;20025;-90
2022/01/13 11:42:59;;;;;;;75.50;16.33;;;4.40;91.10;;;;;;4994756;28;20022;-90
2022/01/13 11:45:26;;;;;;;56.53;17.70;;;4.40;91.20;;;;;;4962821;28;20473;-91
2022/01/13 11:48:12;;;;;;;65.50;16.58;;;4.40;91.20;;;;;;4962736;28;20034;-91
2022/01/13 11:50:48;;;;;;;42.95;15.43;;;4.40;91.30;;;;;;4994459;28;20026;-90
2022/01/13 11:53:26;;;;;;;49.53;16.25;;;4.30;91.20;;;;;;4979831;28;20076;-90
2022/01/13 11:56:04;;;;;;;76.55;17.17;;;4.30;91.40;;;;;;4994940;28;20018;-90
2022/01/13 11:58:42;;;;;;;34.17;16.35;;;4.30;91.40;;;;;;4977813;28;20034;-90
2022/01/13 12:01:24;;;;;;;67.22;17.88;;;4.30;91.40;;;;;;5010519;28;20117;-90
2022/01/13 12:04:04;;;;;;;33.95;16.33;;;4.30;91.40;;;;;;4986538;28;20014;-90
2022/01/13 12:06:41;;;;;;;51.72;16.65;;;4.30;91.40;;;;;;4994418;28;20388;-91
2022/01/13 12:09:29;;;;;;;45.78;15.68;;;4.30;91.40;;;;;;4994095;28;20034;-91
2022/01/13 12:11:56;;;;;;;42.30;17.00;;;4.40;91.50;;;;;;4981909;28;20042;-91
2022/01/13 12:14:25;;;;;;;39.83;15.88;;;4.30;91.40;;;;;;4978749;28;20050;-91
2022/01/13 12:16:54;;;;;;;41.95;16.80;;;4.30;91.40;;;;;;4997629;28;20026;-91
2022/01/13 12:19:34;;;;;;;40.42;16.58;;;4.30;91.50;;;;;;4998059;28;20029;-91
2022/01/13 12:22:04;;;;;;;47.63;17.90;;;4.40;91.40;;;;;;4998272;28;20056;-91
2022/01/13 12:24:52;;;;;;;40.42;16.10;;;4.40;91.40;;;;;;4997841;28;20026;-91
2022/01/13 12:27:42;;;;;;;44.75;17.58;;;4.40;91.40;;;;;;4999105;28;20042;-92
2022/01/13 12:30:16;;;;;;;60.92;16.92;;;4.30;91.40;;;;;;5000204;28;20030;-92
2022/01/13 12:32:48;;;;;;;56.50;16.88;;;4.30;91.40;;;;;;4999805;28;20064;-93
2022/01/13 12:35:47;;;;;;;40.65;17.38;;;4.30;91.40;;;;;;4997948;28;20513;-93
2022/01/13 12:38:17;;;;;;;62.65;17.17;;;4.30;91.50;;;;;;4980247;28;20033;-93
2022/01/13 12:41:14;;;;;;;59.25;17.02;;;4.30;91.50;;;;;;4985065;28;20024;-93
2022/01/13 12:46:16;;;;;;;55.83;18.27;;;4.40;91.50;;;;;;5015925;28;20033;-92
2022/01/13 12:48:48;;;;;;;59.67;17.10;;;4.30;91.40;;;;;;5002051;28;20080;-92
2022/01/13 12:51:19;;;;;;;138.30;18.60;;;4.40;91.40;;;;;;5000333;28;20030;-92
2022/01/13 12:53:46;;;;;;;39.20;15.02;;;4.30;91.40;;;;;;4999904;28;20057;-93
2022/01/13 12:56:16;;;;;;;33.35;14.77;;;4.30;91.40;;;;;;4999475;28;20026;-92
2022/01/13 12:58:50;;;;;;;55.97;16.60;;;4.30;91.40;;;;;;4997053;28;20034;-92
2022/01/13 13:01:19;;;;;;;66.28;16.23;;;4.30;91.40;;;;;;4997891;28;20507;-92
2022/01/13 13:04:04;;;;;;;37.30;16.17;;;4.30;91.40;;;;;;4998782;28;20028;-92
2022/01/13 13:06:32;;;;;;;69.43;16.75;;;4.30;91.40;;;;;;4994098;28;20026;-92
2022/01/13 13:09:05;;;;;;;40.25;15.50;;;4.40;91.40;;;;;;4998434;28;20503;-93
2022/01/13 13:11:31;;;;;;;;;;;4.40;91.30;;;;;;4998432;28;20044;-92
2022/01/13 13:13:58;;;;;;;41.83;14.88;;;4.30;91.30;;;;;;4998338;28;20364;-91
2022/01/13 13:16:23;;;;;;;47.40;16.83;;;4.30;91.40;;;;;;4997907;28;20068;-92